Lebork, Poland

5:50 PM CET on December 18, 2014 (GMT +0100)
Luzino | Change Station
CLOSE
Current Station
Personal Weather Station
Location: Luzino, WOJ. POMORSKIE
Elevation: 331 ft
Nearby Weather Stations

Elev 331 ft 54.57 °N, 18.10 °E | Updated 34 minutes ago

Mostly Cloudy
Mostly Cloudy
45.0 °F
Feels Like 41 °F
N
8.3
Wind Variable Wind from SSW
Gusts 19.7 mph

Today
High -- | Low -- °F
--% Chance of Precip.
Yesterday
High -- | Low -- °F
Precip. -- in
8:07 AM 3:23 PM
Waning Crescent, 13% visible
Pressure 29.62 in
Visibility 6.2 miles
Clouds Mostly Cloudy 2600 ft
Windchill 41 °F
Dew Point 42 °F
Humidity 89%
Rainfall 0.02 in
Snow Depth Not available.
UV 0 out of 12
Pollen Not available.
Air Quality Not available.
Flu Activity Not available.
METAR EPGD 181630Z 22011KT 9999 BKN026 07/05 Q1003

More Conditions Fewer Conditions

Pressure 29.62 in
Visibility 6.2 miles
Clouds Mostly Cloudy 2600 ft
Windchill 41 °F
Dew Point 42 °F
Humidity 89%
Rainfall 0.02 in
Snow Depth Not available.
UV 0 out of 12
Pollen Not available.
Air Quality Not available.
Flu Activity Not available.
METAR EPGD 181630Z 22011KT 9999 BKN026 07/05 Q1003

More Conditions Fewer Conditions

10-Day Weather Forecast

Almanac

Astronomy

Dec. 18, 2014 Rise Set
Actual Time
Civil Twilight
Nautical Twilight
Astronomical Twilight
Moon
Length of Visible Light
Length of Day
Tomorrow will be .
, % of the Moon is Illuminated

Today's Extremes

Country Highs Country Lows

Community

WunderPhotos

Upload Photos

1,778,960 photos uploaded!

WunderBlogs® & News

Nearby

Air Quality

  Air Quality AQ Index Pollutant
Not available.

Snow Depth

Station Depth Elevation

Earthquake Activity

City Distance Mag. Time & Date
Minimum magnitude displayed is 2.5.

Coastal Water Temperatures

Place Temperature

Nearby Weather Stations